Latest Coastal Weather Observations for Tewantin

IDQ60701

Issued at 6:42 am EST Saturday 2 July 2016 (issued every 10 minutes, with the page automatically refreshed every 10 minutes)

About coastal observations | Map of coastal stations | Coastal observations for QLD | Marine services | Other Formats
Station Details ID: 040908 Name: TEWANTIN RSL PARK Lat: -26.39 Lon: 153.04 Height: 6.4 m
Data from the previous 72 hours. | See also: Recent months at Tewantin
Date/Time
EST
Temp
°C
Wind Pressure Rain since
9am
mm
Weather Cloud Vis
km
Sea
Height
m
Swell
Dir  Spd
kts
Gust
kts
hPa Trend Height
m
Period
s
Dir
02/06:30am 7.5 CALM 0 0 1022.9 - 0.0 - - - - - - -
02/06:00am 8.0 CALM 0 3 1022.5 - 0.0 - - - - - - -
02/05:30am 8.3 CALM 0 0 1022.2 - 0.0 - - - - - - -
02/05:00am 8.8 CALM 0 0 1021.9 - 0.0 - - - - - - -
02/04:30am 9.3 CALM 0 0 1021.5 - 0.0 - - - - - - -
02/04:00am 9.8 CALM 0 0 1021.2 - 0.0 - - - - - - -
02/03:30am 10.0 WSW 3 6 1021.3 - 0.0 - - - - - - -
02/03:00am 8.8 CALM 0 0 1021.3 - 0.0 - - - - - - -
02/02:30am 9.4 CALM 0 3 1021.6 - 0.0 - - - - - - -
02/02:00am 9.6 NW 3 5 1021.5 - 0.0 - - - - - - -
02/01:30am 9.9 W 1 4 1021.6 - 0.0 - - - - - - -
02/01:00am 10.1 W 2 4 1021.5 - 0.0 - - - - - - -
02/12:30am 10.6 N 1 4 1021.7 - 0.0 - - - - - - -
02/12:00am 10.6 CALM 0 1 1021.4 - 0.0 - - - - - - -
 
Date/Time
EST
Temp
°C
Wind Pressure Rain since
9am
mm
Weather Cloud Vis
km
Sea
Height
m
Swell
Dir  Spd
kts
Gust
kts
hPa Trend Height
m
Period
s
Dir
01/11:30pm 11.2 CALM 0 0 1021.9 - 0.0 - - - - - - -
01/11:00pm 11.8 CALM 0 3 1022.0 - 0.0 - - - - - - -
01/10:30pm 12.6 CALM 0 0 1022.2 - 0.0 - - - - - - -
01/10:00pm 12.9 CALM 0 3 1022.1 - 0.0 - - - - - - -
01/09:30pm 13.4 CALM 0 3 1022.1 - 0.0 - - - - - - -
01/09:00pm 13.7 CALM 0 1 1021.9 - 0.0 - - - - - - -
01/08:30pm 13.5 SW 3 4 1021.5 - 0.0 - - - - - - -
01/08:00pm 13.3 CALM 0 0 1021.3 - 0.0 - - - - - - -
01/07:30pm 13.4 CALM 0 0 1021.0 - 0.0 - - - - - - -
01/07:00pm 14.3 CALM 0 0 1020.5 - 0.0 - - - - - - -
01/06:30pm 15.2 CALM 0 0 1020.0 - 0.0 - - - - - - -
01/06:00pm 16.5 SW 1 4 1019.6 - 0.0 - - - - - - -
01/05:30pm 17.6 SW 1 4 1019.3 - 0.0 - - - - - - -
01/05:00pm 18.8 ENE 1 4 1018.8 - 0.0 - - - - - - -
01/04:30pm 20.0 ENE 2 4 1018.4 - 0.0 - - - - - - -
01/04:00pm 21.6 W 1 3 1017.8 - 0.0 - - - - - - -
01/03:30pm 22.0 WNW 3 5 1017.5 - 0.0 - - - - - - -
01/03:00pm 22.2 W 4 7 1017.5 - 0.0 - - - - - - -
01/02:30pm 22.4 SW 6 11 1017.7 - 0.0 - - - - - - -
01/02:00pm 23.3 WSW 4 9 1017.8 - 0.0 - - - - - - -
01/01:30pm 23.3 W 5 8 1018.0 - 0.0 - - - - - - -
01/01:00pm 23.2 WSW 5 10 1018.0 - 0.0 - - - - - - -
01/12:30pm 22.9 W 5 9 1018.4 - 0.0 - - - - - - -
01/12:00pm 22.3 WSW 5 10 1018.9 - 0.0 - - - - - - -
01/11:30am 22.2 W 5 7 1019.4 - 0.0 - - - - - - -
01/11:00am 21.1 WSW 5 9 1019.9 - 0.0 - - - - - - -
01/10:30am 21.2 W 5 9 1020.3 - 0.0 - - - - - - -
01/10:00am 20.4 NW 5 9 1020.5 - 0.0 - - - - - - -
01/09:30am 19.3 NW 3 6 1020.8 - 0.0 - - - - - - -
01/09:00am 17.9 N 3 5 1021.0 - 0.0 - - - - - - -
01/08:30am 16.3 NE 1 3 1021.0 - 0.0 - - - - - - -
01/08:00am 14.3 NNW 3 4 1020.8 - 0.0 - - - - - - -
01/07:30am 13.4 NW 2 4 1020.7 - 0.0 - - - - - - -
01/07:00am 12.3 CALM 0 0 1020.3 - 0.0 - - - - - - -
01/06:30am 12.1 NW 1 3 1020.1 - 0.0 - - - - - - -
01/06:00am 12.6 NW 4 5 1019.8 - 0.0 - - - - - - -
01/05:30am 13.1 WNW 4 6 1019.7 - 0.0 - - - - - - -
01/05:00am 13.1 WNW 4 6 1019.4 - 0.0 - - - - - - -
01/04:30am 13.4 NW 3 5 1019.2 - 0.0 - - - - - - -
01/04:00am 13.5 NW 3 4 1019.2 - 0.0 - - - - - - -
01/03:30am 13.4 CALM 0 3 1019.3 - 0.0 - - - - - - -
01/03:00am 13.3 WSW 1 4 1019.3 - 0.0 - - - - - - -
01/02:30am 13.4 CALM 0 0 1019.3 - 0.0 - - - - - - -
01/02:00am 13.7 CALM 0 2 1019.5 - 0.0 - - - - - - -
01/01:30am 13.9 CALM 0 2 1019.5 - 0.0 - - - - - - -
01/01:00am 13.9 WNW 3 6 1019.7 - 0.0 - - - - - - -
01/12:30am 13.1 NW 1 4 1019.8 - 0.0 - - - - - - -
01/12:00am 13.3 NNW 1 3 1020.1 - 0.0 - - - - - - -
 
Date/Time
EST
Temp
°C
Wind Pressure Rain since
9am
mm
Weather Cloud Vis
km
Sea
Height
m
Swell
Dir  Spd
kts
Gust
kts
hPa Trend Height
m
Period
s
Dir
30/11:30pm 13.1 CALM 0 4 1020.5 - 0.0 - - - - - - -
30/11:00pm 13.2 CALM 0 0 1020.5 - 0.0 - - - - - - -
30/10:30pm 13.1 CALM 0 0 1021.0 - 0.0 - - - - - - -
30/10:00pm 13.4 CALM 0 2 1021.2 - 0.0 - - - - - - -
30/09:30pm 13.2 CALM 0 0 1021.4 - 0.0 - - - - - - -
30/09:00pm 13.4 CALM 0 0 1021.3 - 0.0 - - - - - - -
30/08:30pm 13.7 CALM 0 0 1021.2 - 0.0 - - - - - - -
30/08:00pm 13.9 CALM 0 0 1021.1 - 0.0 - - - - - - -
30/07:30pm 14.3 CALM 0 0 1021.0 - 0.0 - - - - - - -
30/07:00pm 14.9 CALM 0 0 1021.1 - 0.0 - - - - - - -
30/06:30pm 15.9 CALM 0 3 1020.8 - 0.0 - - - - - - -
30/06:00pm 16.2 CALM 0 0 1020.6 - 0.0 - - - - - - -
30/05:30pm 17.5 CALM 0 0 1020.5 - 0.0 - - - - - - -
30/05:00pm 18.1 E 3 5 1020.3 - 0.0 - - - - - - -
30/04:30pm 18.8 ESE 4 7 1020.2 - 0.0 - - - - - - -
30/04:00pm 19.4 E 5 7 1020.4 - 0.0 - - - - - - -
30/03:30pm 19.7 ESE 5 6 1020.3 - 0.0 - - - - - - -
30/03:00pm 20.0 E 4 7 1020.3 - 0.0 - - - - - - -
30/02:30pm 20.0 E 5 6 1020.4 - 0.0 - - - - - - -
30/02:00pm 20.7 ESE 5 9 1020.6 - 0.0 - - - - - - -
30/01:30pm 20.9 SE 5 7 1020.9 - 0.0 - - - - - - -
30/01:00pm 20.9 SE 4 8 1021.4 - 0.0 - - - - - - -
30/12:30pm 21.6 E 4 7 1022.0 - 0.0 - - - - - - -
30/12:00pm 21.2 SSE 4 7 1022.3 - 0.0 - - - - - - -
30/11:30am 20.8 S 5 8 1022.8 - 0.0 - - - - - - -
30/11:00am 20.0 SSE 5 10 1023.3 - 0.0 - - - - - - -
30/10:30am 19.4 SSE 5 8 1023.5 - 0.0 - - - - - - -
30/10:00am 19.6 S 5 9 1023.8 - 0.0 - - - - - - -
30/09:30am 18.3 S 5 9 1023.8 - 0.0 - - - - - - -
30/09:00am 17.7 S 5 7 1023.8 - 0.0 - - - - - - -
30/08:30am 16.5 S 5 7 1023.6 - 0.0 - - - - - - -
30/08:00am 15.2 S 1 4 1023.6 - 0.0 - - - - - - -
30/07:30am 12.4 CALM 0 0 1023.5 - 0.0 - - - - - - -
30/07:00am 10.9 S 2 4 1023.3 - 0.0 - - - - - - -
30/06:30am 10.7 CALM 0 0 1023.1 - 0.0 - - - - - - -
30/06:00am 11.1 CALM 0 0 1022.9 - 0.0 - - - - - - -
30/05:30am 11.4 SSW 1 3 1022.7 - 0.0 - - - - - - -
30/05:00am 11.5 CALM 0 3 1022.6 - 0.0 - - - - - - -
30/04:30am 11.4 CALM 0 0 1022.7 - 0.0 - - - - - - -
30/04:00am 11.9 CALM 0 3 1022.8 - 0.0 - - - - - - -
30/03:30am 12.2 S 3 5 1022.9 - 0.0 - - - - - - -
30/03:00am 11.5 S 3 5 1023.1 - 0.0 - - - - - - -
30/02:30am 10.8 S 1 3 1023.3 - 0.0 - - - - - - -
30/02:00am 10.4 CALM 0 0 1023.6 - 0.0 - - - - - - -
30/01:30am 10.5 CALM 0 0 1024.1 - 0.0 - - - - - - -
30/01:00am 10.4 CALM 0 0 1024.5 - 0.0 - - - - - - -
30/12:30am 10.6 CALM 0 0 1024.5 - 0.0 - - - - - - -
30/12:00am 10.9 CALM 0 0 1024.6 - 0.0 - - - - - - -
 
Date/Time
EST
Temp
°C
Wind Pressure Rain since
9am
mm
Weather Cloud Vis
km
Sea
Height
m
Swell
Dir  Spd
kts
Gust
kts
hPa Trend Height
m
Period
s
Dir
29/11:30pm 11.9 SSW 3 5 1024.7 - 0.0 - - - - - - -
29/11:00pm 11.6 SSW 2 3 1025.0 - 0.0 - - - - - - -
29/10:30pm 11.6 CALM 0 0 1025.2 - 0.0 - - - - - - -
29/10:00pm 11.8 CALM 0 0 1025.3 - 0.0 - - - - - - -
29/09:30pm 12.0 CALM 0 0 1025.3 - 0.0 - - - - - - -
29/09:00pm 12.1 CALM 0 0 1025.3 - 0.0 - - - - - - -
29/08:30pm 12.4 CALM 0 0 1025.4 - 0.0 - - - - - - -
29/08:00pm 12.8 CALM 0 0 1025.5 - 0.0 - - - - - - -
29/07:30pm 13.5 CALM 0 0 1025.4 - 0.0 - - - - - - -
29/07:00pm 14.4 SW 3 4 1025.4 - 0.0 - - - - - - -
29/06:30pm 15.1 SSW 4 6 1025.1 - 0.0 - - - - - - -
29/06:00pm 15.8 S 4 5 1024.8 - 0.0 - - - - - - -
29/05:30pm 16.5 SSE 5 6 1024.6 - 0.0 - - - - - - -
29/05:00pm 17.3 SSE 5 7 1024.3 - 0.0 - - - - - - -
29/04:30pm 18.0 SE 6 9 1024.1 - 0.0 - - - - - - -
29/04:00pm 18.4 SSE 7 11 1023.8 - 0.0 - - - - - - -
29/03:30pm 18.9 SE 7 11 1023.7 - 0.0 - - - - - - -
29/03:00pm 18.9 SE 8 11 1023.5 - 0.0 - - - - - - -
29/02:30pm 19.1 SE 7 13 1023.3 - 0.0 - - - - - - -
29/02:00pm 19.2 SE 8 13 1023.3 - 0.0 - - - - - - -
29/01:30pm 19.3 SE 8 13 1023.4 - 0.0 - - - - - - -
29/01:00pm 19.7 SE 9 13 1023.7 - 0.0 - - - - - - -
29/12:30pm 19.8 SSE 7 13 1024.1 - 0.0 - - - - - - -
29/12:00pm 19.9 S 8 14 1024.6 - 0.0 - - - - - - -
29/11:30am 19.1 S 9 15 1025.2 - 0.0 - - - - - - -
29/11:00am 19.3 S 9 14 1025.7 - 0.0 - - - - - - -
29/10:30am 19.3 S 8 13 1026.0 - 0.0 - - - - - - -
29/10:00am 18.2 S 8 12 1026.1 - 0.0 - - - - - - -
29/09:30am 17.5 S 6 11 1026.2 - 0.0 - - - - - - -
29/09:00am 16.2 S 4 7 1026.2 - 0.0 - - - - - - -
29/08:30am 13.5 CALM 0 3 1025.9 - 0.0 - - - - - - -
29/08:00am 11.1 CALM 0 0 1025.7 - 0.0 - - - - - - -
29/07:30am 9.2 CALM 0 0 1025.4 - 0.0 - - - - - - -
29/07:00am 7.8 CALM 0 0 1025.1 - 0.0 - - - - - - -

Other Formats:

Comma delimited format used in spreadsheet applications
http://www.bom.gov.au/fwo/IDQ60701/IDQ60701.94570.axf

JavaScript Object Notation format (JSON) in row-major order
http://www.bom.gov.au/fwo/IDQ60701/IDQ60701.94570.json